Dodson, Oregon
Current Conditions -  °F | °C
As of 1:59 PM on Thursday 18 Dec 2014 (Local Time) from K4S2 Reporting Station
Overcast Overcast  
Wind Chill: 41°   Ceiling: 5000
Heat Index: 41°   Visibility: 7mi
Dew Point: 39°   Wind: 0mph
Humidity: 93%   Direction: NA
Pressure: 29.97"   Gusts: NA
Location:  45.6281°N, 121.806°W
Report Text: K4S2 182159Z AUTO 00000KT 7SM SCT009 SCT032 OVC050 05/04 A2997 RMK AO2 SLP164 T00500040
Loading
Personal Weather Stations






























Interactive Weather Map New forecast layout! Learn more

10-Day Weather Forecast

Advertisements
Track Severe Weather on mobile